createdAt,value
2018-10-03T00:02:54.045Z,42.50
2018-10-03T00:07:57.455Z,42.55
2018-10-03T00:13:00.857Z,42.77
2018-10-03T00:18:04.278Z,42.77
2018-10-03T00:23:07.685Z,42.90
2018-10-03T00:28:11.080Z,42.80
2018-10-03T00:33:14.484Z,42.99
2018-10-03T00:38:17.888Z,43.13
2018-10-03T00:43:21.291Z,43.25
2018-10-03T00:48:24.713Z,43.25
2018-10-03T00:53:28.130Z,43.33
2018-10-03T00:58:31.558Z,43.24
2018-10-03T01:03:34.964Z,43.55
2018-10-03T01:08:38.372Z,43.34
2018-10-03T01:13:41.788Z,43.70
2018-10-03T01:18:46.008Z,43.64
2018-10-03T01:23:49.429Z,43.56
2018-10-03T01:28:52.833Z,43.44
2018-10-03T01:33:56.241Z,43.73
2018-10-03T01:38:59.652Z,43.64
2018-10-03T01:44:03.064Z,43.65
2018-10-03T01:49:06.534Z,43.78
2018-10-03T01:54:09.932Z,43.87
2018-10-03T01:59:13.336Z,43.89
2018-10-03T02:04:16.737Z,43.56
2018-10-03T02:09:20.152Z,43.36
2018-10-03T02:14:23.576Z,43.88
2018-10-03T02:19:26.989Z,43.56
2018-10-03T02:24:30.401Z,43.77
2018-10-03T02:29:33.813Z,43.90
2018-10-03T02:34:37.263Z,43.57
2018-10-03T02:39:40.632Z,43.84
2018-10-03T02:44:44.032Z,44.07
2018-10-03T02:49:47.506Z,43.70
2018-10-03T02:54:50.867Z,44.17
2018-10-03T02:59:54.273Z,43.77
2018-10-03T03:04:57.683Z,44.20
2018-10-03T03:10:01.108Z,44.18
2018-10-03T03:15:04.636Z,44.29
2018-10-03T03:20:08.067Z,44.07
2018-10-03T03:25:11.493Z,44.20
2018-10-03T03:30:14.896Z,44.22
2018-10-03T03:35:18.300Z,44.40
2018-10-03T03:40:21.768Z,44.07
2018-10-03T03:45:25.206Z,44.33
2018-10-03T03:50:29.367Z,44.26
2018-10-03T03:55:32.821Z,44.15
2018-10-03T04:00:36.270Z,44.35
2018-10-03T04:05:39.789Z,44.29
2018-10-03T04:10:43.281Z,44.53
2018-10-03T04:15:46.718Z,44.30
2018-10-03T04:20:50.156Z,44.70
2018-10-03T04:25:53.596Z,44.49
2018-10-03T04:30:57.037Z,44.63
2018-10-03T04:36:00.476Z,44.54
2018-10-03T04:41:03.953Z,45.19
2018-10-03T04:46:07.399Z,45.00
2018-10-03T04:51:10.858Z,44.56
2018-10-03T04:56:14.420Z,44.79
2018-10-03T05:01:17.861Z,44.87
2018-10-03T05:06:21.292Z,44.86
2018-10-03T05:11:24.801Z,44.89
2018-10-03T05:16:28.185Z,44.76
2018-10-03T05:21:31.624Z,44.92
2018-10-03T05:26:35.069Z,45.05
2018-10-03T05:31:38.545Z,44.90
2018-10-03T05:36:41.981Z,45.16
2018-10-03T05:41:45.417Z,45.12
2018-10-03T05:46:48.860Z,45.03
2018-10-03T05:51:52.337Z,44.80
2018-10-03T05:56:55.776Z,44.94
2018-10-03T06:01:59.261Z,45.18
2018-10-03T06:07:02.717Z,45.02
2018-10-03T06:12:06.171Z,44.88
2018-10-03T06:17:09.626Z,45.14
2018-10-03T06:22:13.304Z,45.02
2018-10-03T06:27:16.742Z,45.12
2018-10-03T06:32:20.192Z,45.21
2018-10-03T06:37:23.676Z,45.13
2018-10-03T06:42:27.158Z,45.18
2018-10-03T06:47:30.575Z,45.32
2018-10-03T06:52:33.992Z,45.42
2018-10-03T06:57:37.409Z,45.25
2018-10-03T07:02:40.881Z,45.31
2018-10-03T07:07:44.477Z,40.43
2018-10-03T07:12:47.943Z,40.72
2018-10-03T07:17:51.410Z,40.35
2018-10-03T07:22:55.018Z,40.33
2018-10-03T07:27:58.529Z,40.55
2018-10-03T07:33:01.979Z,41.09
2018-10-03T07:38:05.441Z,40.98
2018-10-03T07:43:08.923Z,41.46
2018-10-03T07:48:12.378Z,41.60
2018-10-03T07:53:15.913Z,41.86
2018-10-03T07:58:19.258Z,42.80
2018-10-03T08:03:22.681Z,42.56
2018-10-03T08:08:26.164Z,42.65
2018-10-03T08:13:29.597Z,43.25
2018-10-03T08:18:33.103Z,43.24
2018-10-03T08:23:36.900Z,43.69
2018-10-03T08:28:40.438Z,43.77
2018-10-03T08:33:43.894Z,43.42
2018-10-03T08:38:47.440Z,43.38
2018-10-03T08:43:50.838Z,43.41
2018-10-03T08:48:54.305Z,43.79
2018-10-03T08:53:58.254Z,43.58
2018-10-03T08:59:01.716Z,43.38
2018-10-03T09:04:05.164Z,43.66
2018-10-03T09:09:09.768Z,43.21
2018-10-03T09:14:13.212Z,43.92
2018-10-03T09:19:16.617Z,43.74
2018-10-03T09:24:20.050Z,44.28
2018-10-03T09:29:23.525Z,44.14
2018-10-03T09:34:26.961Z,44.25
2018-10-03T09:39:30.405Z,44.17
2018-10-03T09:44:33.865Z,44.42
2018-10-03T09:49:37.325Z,44.44
2018-10-03T09:54:40.749Z,44.77
2018-10-03T09:59:44.213Z,44.09
2018-10-03T10:04:47.622Z,44.09
2018-10-03T10:09:51.046Z,45.09
2018-10-03T10:14:54.457Z,45.81
2018-10-03T10:19:57.875Z,46.63
2018-10-03T10:25:01.441Z,46.64
2018-10-03T10:30:05.970Z,46.21
2018-10-03T10:35:09.434Z,46.06
2018-10-03T10:40:12.916Z,46.44
2018-10-03T10:45:16.328Z,46.61
2018-10-03T10:50:19.832Z,46.02
2018-10-03T10:55:23.319Z,46.53
2018-10-03T11:00:26.803Z,47.25
2018-10-03T11:05:30.226Z,47.08
2018-10-03T11:10:33.645Z,47.00
2018-10-03T11:15:37.112Z,46.99
2018-10-03T11:20:40.545Z,46.68
2018-10-03T11:25:43.961Z,46.90
2018-10-03T11:30:47.398Z,46.52
2018-10-03T11:35:50.829Z,46.57
2018-10-03T11:40:54.261Z,46.39
2018-10-03T11:45:57.691Z,46.23
2018-10-03T11:51:01.134Z,46.19
2018-10-03T11:56:04.637Z,45.85
2018-10-03T12:01:08.064Z,46.04
2018-10-03T12:06:11.506Z,45.94
2018-10-03T12:11:14.960Z,46.03
2018-10-03T12:16:18.423Z,46.10
2018-10-03T12:21:21.832Z,46.39
2018-10-03T12:26:25.287Z,46.31
2018-10-03T12:31:28.727Z,46.67
2018-10-03T12:36:32.169Z,46.84
2018-10-03T12:41:35.582Z,47.34
2018-10-03T12:46:39.263Z,46.97
2018-10-03T12:51:42.706Z,46.88
2018-10-03T12:56:46.150Z,46.90
2018-10-03T13:01:49.601Z,47.13
2018-10-03T13:06:53.096Z,46.94
2018-10-03T13:11:56.510Z,46.32
2018-10-03T13:16:59.976Z,46.54
2018-10-03T13:22:03.713Z,46.04
2018-10-03T13:27:07.180Z,46.33
2018-10-03T13:32:10.631Z,46.32
2018-10-03T13:37:14.079Z,45.92
2018-10-03T13:42:17.557Z,46.28
2018-10-03T13:47:20.999Z,46.33
2018-10-03T13:52:24.414Z,46.65
2018-10-03T13:57:27.837Z,46.73
2018-10-03T14:02:31.282Z,46.85
2018-10-03T14:07:34.705Z,46.74
2018-10-03T14:12:38.154Z,46.81
2018-10-03T14:17:41.590Z,46.49
2018-10-03T14:22:45.039Z,46.62
2018-10-03T14:27:48.502Z,46.11
2018-10-03T14:32:51.985Z,46.38
2018-10-03T14:37:55.395Z,46.30
2018-10-03T14:42:58.861Z,46.50
2018-10-03T14:48:02.382Z,46.21
2018-10-03T14:53:05.812Z,46.68
2018-10-03T14:58:09.303Z,46.59
2018-10-03T15:03:12.707Z,46.71
2018-10-03T15:08:16.165Z,46.49
2018-10-03T15:13:19.597Z,46.62
2018-10-03T15:18:23.115Z,46.86
2018-10-03T15:23:26.543Z,46.51
2018-10-03T15:28:29.962Z,46.47
2018-10-03T15:33:33.406Z,46.25
2018-10-03T15:38:36.877Z,45.83
2018-10-03T15:43:40.338Z,46.15
2018-10-03T15:48:45.324Z,46.32
2018-10-03T15:53:48.853Z,46.29
2018-10-03T15:58:52.269Z,46.05
2018-10-03T16:03:55.741Z,46.58
2018-10-03T16:08:59.184Z,46.25
2018-10-03T16:14:02.626Z,46.40
2018-10-03T16:19:06.077Z,46.56
2018-10-03T16:24:09.529Z,46.69
2018-10-03T16:29:12.955Z,46.63
2018-10-03T16:34:16.409Z,46.75
2018-10-03T16:39:20.045Z,46.80
2018-10-03T16:44:23.483Z,46.71
2018-10-03T16:49:27.718Z,46.87
2018-10-03T16:54:31.133Z,46.88
2018-10-03T16:59:34.573Z,46.80
2018-10-03T17:04:37.989Z,46.81
2018-10-03T17:09:41.605Z,46.49
2018-10-03T17:14:45.713Z,46.52
2018-10-03T17:19:49.823Z,46.37
2018-10-03T17:24:54.950Z,46.34
2018-10-03T17:29:59.240Z,46.96
2018-10-03T17:35:03.597Z,46.58
2018-10-03T17:40:08.189Z,46.43
2018-10-03T17:45:12.468Z,46.41
2018-10-03T17:50:16.854Z,46.45
2018-10-03T17:55:21.529Z,46.48
2018-10-03T18:00:25.875Z,46.64
2018-10-03T18:05:30.122Z,46.85
2018-10-03T18:10:34.494Z,46.66
2018-10-03T18:15:38.815Z,46.36
2018-10-03T18:26:08.890Z,46.83
2018-10-03T18:31:12.344Z,46.47
2018-10-03T18:36:15.839Z,46.57
2018-10-03T18:41:19.509Z,46.05
2018-10-03T18:46:24.273Z,45.69
2018-10-03T18:51:27.891Z,45.63
2018-10-03T18:56:32.254Z,45.41
2018-10-03T19:01:36.387Z,45.77
2018-10-03T19:06:41.154Z,45.46
2018-10-03T19:11:45.367Z,45.75
2018-10-03T19:16:49.274Z,45.18
2018-10-03T19:21:53.602Z,45.17
2018-10-03T19:26:57.517Z,44.95
2018-10-03T19:32:02.511Z,44.77
2018-10-03T19:37:06.103Z,44.55
2018-10-03T19:42:10.492Z,44.43
2018-10-03T19:47:14.442Z,44.79
2018-10-03T19:52:18.761Z,44.69
2018-10-03T19:57:22.453Z,44.35
2018-10-03T20:02:26.772Z,44.83
2018-10-03T20:07:30.797Z,44.72
2018-10-03T20:12:34.508Z,44.52
2018-10-03T20:17:38.934Z,44.52
2018-10-03T20:22:43.121Z,44.57
2018-10-03T20:27:46.573Z,44.33
2018-10-03T20:32:50.018Z,43.96
2018-10-03T20:37:53.815Z,44.23
2018-10-03T20:42:57.817Z,44.44
2018-10-03T20:48:01.379Z,44.51
2018-10-03T20:53:04.826Z,43.92
2018-10-03T20:58:08.481Z,43.90
2018-10-03T21:03:12.155Z,44.13
2018-10-03T21:08:15.678Z,43.97
2018-10-03T21:13:19.218Z,44.20
2018-10-03T21:18:22.690Z,44.05
2018-10-03T21:23:26.189Z,44.25
2018-10-03T21:28:29.741Z,44.20
2018-10-03T21:33:33.217Z,44.01
2018-10-03T21:38:36.750Z,44.33
2018-10-03T21:43:40.225Z,44.16
2018-10-03T21:48:43.717Z,44.06
2018-10-03T21:53:47.162Z,43.99
2018-10-03T21:58:50.683Z,44.44
2018-10-03T22:03:54.164Z,44.25
2018-10-03T22:08:57.607Z,44.48
2018-10-03T22:14:01.133Z,44.48
2018-10-03T22:19:04.593Z,44.33
2018-10-03T22:24:08.040Z,44.38
2018-10-03T22:29:11.480Z,44.61
2018-10-03T22:34:14.941Z,44.52
2018-10-03T22:39:18.383Z,44.35
2018-10-03T22:44:21.859Z,44.41
2018-10-03T22:49:25.324Z,44.50
2018-10-03T22:54:28.762Z,44.62
2018-10-03T22:59:32.206Z,44.45
2018-10-03T23:04:35.649Z,44.46
2018-10-03T23:09:39.141Z,44.37
2018-10-03T23:14:42.581Z,44.24
2018-10-03T23:19:46.054Z,44.27
2018-10-03T23:24:49.502Z,44.28
2018-10-03T23:29:52.941Z,44.38
2018-10-03T23:34:56.386Z,44.53
2018-10-03T23:39:59.824Z,44.88
2018-10-03T23:45:03.413Z,44.57
2018-10-03T23:50:06.867Z,44.29
2018-10-03T23:55:10.300Z,44.47
